Tiverton, United Kingdom
Current Conditions -  °F | °C
As of 6:50 AM on Friday 19 Dec 2014 (Local Time) from EGTE Reporting Station
Scattered Clouds Scattered Clouds  
Wind Chill: 10°   Ceiling: Unl
Heat Index: 10°   Visibility: 5mi
Dew Point:   Wind: 14mph
Humidity: 94%   Direction: 300°WNW
Pressure: 29.91"   Gusts: NA
Location:  50.9°N, 3.48°W
Report Text: EGTE 190650Z 30012KT 8000 FEW007 SCT012 10/09 Q1013
Loading
Personal Weather Stations






























Interactive Weather Map New forecast layout! Learn more

10-Day Weather Forecast

Advertisements
Track Severe Weather on mobile